Main page
METAR-TAF:

METAR-TAF

Airports :

Avignon, France

Avignon – Provence Airport

latitude: 43-54-26N, longitude: 004-54-07E, elevation: 38 m

Current weather observation

The report was made 38 minutes ago, at 16:00 UTC
Wind 13 kt from the South, varying between South/Southeast and Southwest
Temperature 30°C
Humidity 46%
Pressure 1014 hPa
Visibility 10 km or more
Few clouds at a height of 4500 ft

METAR: LFMV 221600Z AUTO 19013KT 160V230 9999 FEW045 30/17 Q1014 NOSIG

Time: 18:38 (16:38 UTC)

Forecast

The report was made 2 hours and 38 minutes ago, at 14:00 UTC
Forecast valid from 22 at 15 UTC to 23 at 15 UTC
Wind 13 kt from the South/Southwest
Visibility 10 km or more
no clouds below 1500 m and no cumulonimbus
Becoming
from 22 at 18 UTC to 22 at 21 UTC
Wind 5 kt from variable directions
Temporary
from 23 at 09 UTC to 23 at 15 UTC
Wind 7 kt from the West

TAF: LFMV 221400Z 2215/2315 20013KT CAVOK BECMG 2218/2221 VRB05KT TEMPO 2309/2315 28007KT

Weather observations and forecasts of more than 4000 airports (METAR and TAF reports).

The available stations are represented by yellow and red dots on the map.

Hover mouse over dot to see the name of the station.

Then click to see weather observations and forecasts.

To change the map : click on the green buttons with a black cross to zoom in, on the green button with a dash to zoom out, or on the green arrows for adjacent maps.


METAR-TAF: